createdAt,value
2022-11-29T00:00:49.194Z,96.65
2022-11-29T00:03:15.762Z,96.75
2022-11-29T00:05:42.263Z,96.52
2022-11-29T00:08:08.730Z,96.67
2022-11-29T00:10:38.196Z,96.60
2022-11-29T00:13:05.152Z,97.01
2022-11-29T00:15:36.726Z,96.81
2022-11-29T00:18:03.871Z,96.92
2022-11-29T00:20:30.393Z,96.62
2022-11-29T00:22:56.970Z,96.90
2022-11-29T00:25:23.505Z,96.66
2022-11-29T00:27:51.426Z,96.79
2022-11-29T00:30:19.049Z,96.90
2022-11-29T00:32:45.532Z,96.60
2022-11-29T00:35:12.287Z,96.79
2022-11-29T00:37:38.951Z,96.75
2022-11-29T00:40:06.233Z,97.09
2022-11-29T00:42:32.699Z,97.03
2022-11-29T00:44:59.128Z,96.94
2022-11-29T00:47:25.499Z,96.79
2022-11-29T00:49:52.066Z,96.76
2022-11-29T00:52:18.575Z,96.73
2022-11-29T00:54:45.300Z,96.78
2022-11-29T00:57:11.877Z,96.59
2022-11-29T00:59:38.438Z,97.14
2022-11-29T01:02:04.890Z,96.78
2022-11-29T01:04:31.368Z,96.57
2022-11-29T01:06:57.839Z,96.92
2022-11-29T01:09:24.288Z,97.02
2022-11-29T01:11:50.943Z,96.88
2022-11-29T01:14:17.397Z,97.18
2022-11-29T01:16:43.853Z,97.08
2022-11-29T01:19:10.590Z,96.73
2022-11-29T01:21:37.501Z,97.30
2022-11-29T01:24:04.160Z,96.81
2022-11-29T01:26:31.536Z,97.09
2022-11-29T01:28:58.782Z,97.18
2022-11-29T01:31:36.210Z,96.94
2022-11-29T01:34:04.821Z,96.78
2022-11-29T01:36:33.521Z,96.76
2022-11-29T01:39:02.111Z,97.24
2022-11-29T01:41:31.922Z,96.92
2022-11-29T01:44:00.487Z,97.15
2022-11-29T01:46:33.056Z,97.11
2022-11-29T01:49:06.248Z,96.81
2022-11-29T01:51:34.226Z,96.81
2022-11-29T01:54:00.826Z,97.00
2022-11-29T01:56:29.512Z,97.13
2022-11-29T01:58:56.238Z,97.03
2022-11-29T02:01:23.284Z,97.32
2022-11-29T02:03:49.878Z,96.85
2022-11-29T02:06:16.474Z,96.91
2022-11-29T02:08:43.779Z,96.99
2022-11-29T02:11:19.408Z,96.94
2022-11-29T02:13:57.945Z,97.27
2022-11-29T02:16:34.461Z,97.12
2022-11-29T02:19:38.152Z,96.95
2022-11-29T02:22:20.743Z,97.13
2022-11-29T02:25:24.363Z,97.00
2022-11-29T02:28:19.650Z,97.09
2022-11-29T02:31:04.545Z,97.18
2022-11-29T02:33:46.171Z,97.17
2022-11-29T02:36:18.784Z,97.18
2022-11-29T02:39:20.146Z,97.03
2022-11-29T02:42:28.047Z,97.12
2022-11-29T02:45:14.460Z,97.07
2022-11-29T02:48:08.361Z,97.15
2022-11-29T02:50:42.219Z,96.95
2022-11-29T02:53:44.916Z,97.03
2022-11-29T02:56:14.230Z,97.30
2022-11-29T02:58:54.058Z,96.75
2022-11-29T03:01:34.742Z,97.08
2022-11-29T03:04:23.303Z,97.27
2022-11-29T03:07:20.923Z,97.18
2022-11-29T03:10:02.735Z,97.15
2022-11-29T03:12:37.941Z,97.11
2022-11-29T03:15:22.566Z,96.90
2022-11-29T03:18:23.546Z,97.06
2022-11-29T03:20:55.971Z,96.98
2022-11-29T03:23:35.902Z,97.25
2022-11-29T03:26:17.410Z,96.96
2022-11-29T03:29:01.167Z,97.00
2022-11-29T03:31:33.497Z,97.31
2022-11-29T03:34:12.309Z,97.47
2022-11-29T03:37:06.100Z,97.03
2022-11-29T03:39:44.470Z,97.17
2022-11-29T03:42:25.164Z,97.06
2022-11-29T03:45:07.732Z,96.86
2022-11-29T03:47:41.959Z,96.98
2022-11-29T03:50:18.980Z,97.07
2022-11-29T03:52:54.084Z,96.86
2022-11-29T03:55:46.094Z,97.29
2022-11-29T03:58:15.301Z,97.24
2022-11-29T04:00:47.638Z,97.15
2022-11-29T04:03:35.419Z,96.67
2022-11-29T04:06:39.208Z,97.17
2022-11-29T04:09:56.268Z,96.95
2022-11-29T04:12:47.472Z,96.98
2022-11-29T04:15:34.032Z,97.05
2022-11-29T04:18:24.393Z,96.88
2022-11-29T04:21:17.927Z,96.93
2022-11-29T04:24:02.503Z,97.05
2022-11-29T04:26:37.997Z,97.24
2022-11-29T04:29:26.222Z,97.30
2022-11-29T04:32:02.558Z,96.98
2022-11-29T04:34:46.394Z,97.35
2022-11-29T04:37:25.938Z,97.20
2022-11-29T04:40:24.022Z,97.07
2022-11-29T04:43:33.495Z,97.59
2022-11-29T04:46:11.379Z,97.02
2022-11-29T04:48:49.451Z,97.23
2022-11-29T04:51:25.920Z,97.33
2022-11-29T04:54:20.292Z,97.01
2022-11-29T04:56:48.701Z,97.11
2022-11-29T04:59:34.390Z,96.96
2022-11-29T05:02:25.321Z,97.02
2022-11-29T05:05:07.586Z,97.08
2022-11-29T05:07:52.848Z,96.97
2022-11-29T05:10:25.394Z,96.86
2022-11-29T05:13:19.441Z,97.52
2022-11-29T05:16:13.755Z,96.91
2022-11-29T05:19:27.719Z,97.64
2022-11-29T05:22:15.812Z,97.05
2022-11-29T05:25:10.685Z,97.67
2022-11-29T05:27:51.375Z,97.22
2022-11-29T05:30:23.521Z,97.10
2022-11-29T05:33:20.665Z,97.49
2022-11-29T05:36:05.517Z,97.01
2022-11-29T05:39:10.605Z,97.40
2022-11-29T05:42:10.697Z,97.49
2022-11-29T05:44:46.388Z,97.00
2022-11-29T05:47:32.283Z,97.47
2022-11-29T05:50:18.250Z,97.22
2022-11-29T05:52:59.267Z,97.60
2022-11-29T05:55:51.656Z,97.14
2022-11-29T05:58:30.539Z,96.97
2022-11-29T06:01:13.551Z,97.48
2022-11-29T06:03:56.922Z,97.07
2022-11-29T06:06:34.613Z,97.30
2022-11-29T06:09:28.893Z,97.19
2022-11-29T06:12:02.428Z,97.19
2022-11-29T06:14:34.520Z,97.63
2022-11-29T06:17:16.071Z,97.30
2022-11-29T06:19:53.063Z,97.35
2022-11-29T06:22:25.539Z,97.50
2022-11-29T06:25:17.132Z,97.07
2022-11-29T06:28:04.648Z,97.06
2022-11-29T06:30:52.189Z,97.21
2022-11-29T06:33:28.419Z,97.39
2022-11-29T06:36:15.972Z,97.32
2022-11-29T06:38:42.651Z,96.80
2022-11-29T06:41:17.034Z,97.11
2022-11-29T06:43:43.707Z,97.36
2022-11-29T06:46:17.980Z,97.49
2022-11-29T06:49:02.359Z,97.31
2022-11-29T06:51:40.240Z,97.33
2022-11-29T06:54:06.653Z,97.12
2022-11-29T06:56:59.875Z,97.39
2022-11-29T07:00:03.721Z,97.82
2022-11-29T07:03:08.182Z,97.33
2022-11-29T07:05:35.624Z,97.24
2022-11-29T07:08:08.724Z,97.36
2022-11-29T07:10:37.480Z,97.65
2022-11-29T07:13:04.702Z,97.52
2022-11-29T07:15:31.699Z,97.63
2022-11-29T07:18:30.706Z,97.29
2022-11-29T07:21:19.504Z,97.45
2022-11-29T07:24:00.979Z,97.20
2022-11-29T07:26:45.370Z,97.31
2022-11-29T07:29:37.456Z,97.12
2022-11-29T07:32:19.099Z,97.62
2022-11-29T07:35:07.703Z,97.01
2022-11-29T07:38:02.620Z,97.26
2022-11-29T07:40:37.934Z,97.14
2022-11-29T07:43:23.333Z,97.07
2022-11-29T07:45:50.330Z,97.73
2022-11-29T07:48:17.591Z,97.40
2022-11-29T07:50:47.100Z,97.57
2022-11-29T07:53:19.120Z,97.80
2022-11-29T07:55:46.744Z,97.26
2022-11-29T07:58:14.815Z,97.64
2022-11-29T08:00:42.614Z,97.34
2022-11-29T08:03:09.639Z,97.77
2022-11-29T08:05:40.342Z,97.89
2022-11-29T08:08:07.270Z,97.30
2022-11-29T08:10:34.510Z,97.17
2022-11-29T08:13:00.960Z,96.98
2022-11-29T08:15:27.442Z,97.68
2022-11-29T08:17:53.839Z,97.10
2022-11-29T08:20:20.517Z,97.61
2022-11-29T08:22:58.300Z,97.37
2022-11-29T08:25:26.001Z,97.61
2022-11-29T08:27:52.455Z,97.64
2022-11-29T08:30:22.135Z,97.61
2022-11-29T08:32:52.091Z,97.26
2022-11-29T08:35:20.190Z,97.91
2022-11-29T08:37:46.873Z,97.09
2022-11-29T08:40:13.769Z,97.90
2022-11-29T08:42:40.222Z,97.89
2022-11-29T08:45:07.845Z,97.32
2022-11-29T08:47:36.968Z,97.25
2022-11-29T08:50:12.242Z,97.49
2022-11-29T08:53:03.530Z,97.64
2022-11-29T08:55:43.172Z,97.61
2022-11-29T08:58:26.963Z,97.49
2022-11-29T09:00:53.646Z,97.42
2022-11-29T09:03:38.975Z,97.05
2022-11-29T09:06:12.693Z,97.40
2022-11-29T09:08:41.043Z,97.07
2022-11-29T09:11:14.936Z,96.81
2022-11-29T09:13:46.983Z,96.64
2022-11-29T09:16:17.950Z,96.74
2022-11-29T09:18:51.283Z,96.88
2022-11-29T09:21:18.790Z,96.95
2022-11-29T09:23:45.475Z,96.86
2022-11-29T09:26:19.759Z,96.75
2022-11-29T09:28:46.784Z,96.34
2022-11-29T09:31:15.182Z,96.43
2022-11-29T09:33:42.321Z,96.39
2022-11-29T09:36:10.696Z,96.46
2022-11-29T09:38:38.352Z,96.36
2022-11-29T09:41:47.078Z,96.42
2022-11-29T09:44:24.755Z,96.30
2022-11-29T09:47:18.004Z,96.16
2022-11-29T09:50:12.371Z,96.04
2022-11-29T09:52:57.592Z,95.99
2022-11-29T09:55:26.889Z,95.96
2022-11-29T09:57:56.615Z,96.25
2022-11-29T10:00:23.159Z,96.33
2022-11-29T10:03:03.965Z,95.95
2022-11-29T10:05:51.733Z,95.80
2022-11-29T10:08:25.687Z,95.44
2022-11-29T10:11:01.485Z,95.11
2022-11-29T10:13:34.183Z,94.85
2022-11-29T10:16:25.238Z,95.07
2022-11-29T10:18:56.852Z,94.94
2022-11-29T10:21:32.430Z,95.05
2022-11-29T10:24:04.419Z,94.81
2022-11-29T10:26:35.145Z,94.65
2022-11-29T10:29:02.327Z,94.75
2022-11-29T10:31:34.694Z,94.49
2022-11-29T10:34:07.902Z,94.35
2022-11-29T10:36:41.673Z,94.33
2022-11-29T10:39:39.841Z,94.13
2022-11-29T10:42:38.086Z,94.33
2022-11-29T10:45:14.790Z,94.02
2022-11-29T10:47:41.374Z,93.89
2022-11-29T10:50:13.137Z,93.79
2022-11-29T10:52:39.590Z,93.73
2022-11-29T10:55:12.410Z,93.66
2022-11-29T10:58:13.717Z,94.06
2022-11-29T11:00:51.586Z,93.45
2022-11-29T11:03:52.803Z,94.20
2022-11-29T11:06:28.307Z,93.94
2022-11-29T11:08:57.322Z,94.20
2022-11-29T11:11:33.331Z,94.23
2022-11-29T11:14:16.892Z,94.05
2022-11-29T11:16:43.398Z,94.10
2022-11-29T11:19:29.770Z,93.92
2022-11-29T11:21:58.640Z,93.30
2022-11-29T11:24:27.145Z,93.57
2022-11-29T11:26:53.937Z,93.14
2022-11-29T11:29:25.922Z,94.13
2022-11-29T11:31:58.691Z,93.56
2022-11-29T11:34:37.238Z,93.22
2022-11-29T11:37:15.820Z,92.63
2022-11-29T11:39:43.803Z,92.22
2022-11-29T11:42:31.518Z,92.61
2022-11-29T11:44:58.129Z,92.84
2022-11-29T11:47:29.838Z,93.05
2022-11-29T11:50:02.329Z,92.88
2022-11-29T11:52:49.865Z,92.92
2022-11-29T11:55:53.797Z,92.17
2022-11-29T11:58:27.366Z,92.62
2022-11-29T12:01:21.507Z,92.53
2022-11-29T12:03:59.129Z,93.07
2022-11-29T12:06:44.378Z,93.38
2022-11-29T12:09:16.451Z,92.71
2022-11-29T12:11:55.208Z,92.36
2022-11-29T12:14:31.185Z,92.67
2022-11-29T12:17:09.482Z,92.55
2022-11-29T12:19:46.586Z,92.66
2022-11-29T12:22:19.001Z,92.70
2022-11-29T12:24:55.301Z,92.91
2022-11-29T12:27:22.004Z,92.13
2022-11-29T12:29:48.571Z,92.16
2022-11-29T12:32:38.069Z,91.66
2022-11-29T12:35:38.388Z,91.21
2022-11-29T12:38:10.784Z,91.20
2022-11-29T12:41:02.606Z,91.71
2022-11-29T12:44:03.879Z,92.19
2022-11-29T12:46:31.155Z,91.96
2022-11-29T12:49:07.055Z,91.91
2022-11-29T12:51:59.235Z,92.28
2022-11-29T12:54:57.187Z,92.09
2022-11-29T12:57:42.328Z,91.66
2022-11-29T13:00:19.737Z,91.35
2022-11-29T13:03:07.570Z,91.42
2022-11-29T13:05:37.274Z,92.06
2022-11-29T13:08:32.895Z,92.23
2022-11-29T13:11:21.045Z,92.01
2022-11-29T13:14:34.569Z,92.25
2022-11-29T13:16:56.794Z,92.12
2022-11-29T13:19:23.163Z,91.80
2022-11-29T13:22:02.350Z,92.40
2022-11-29T13:24:42.534Z,92.26
2022-11-29T13:27:13.312Z,92.00
2022-11-29T13:29:40.256Z,91.83
2022-11-29T13:32:14.432Z,92.28
2022-11-29T13:34:48.284Z,91.90
2022-11-29T13:37:30.227Z,91.97
2022-11-29T13:40:28.626Z,91.62
2022-11-29T13:43:06.946Z,91.92
2022-11-29T13:45:58.645Z,92.04
2022-11-29T13:48:28.338Z,91.82
2022-11-29T13:50:56.691Z,91.89
2022-11-29T13:53:25.530Z,91.79
2022-11-29T13:56:02.418Z,91.92
2022-11-29T13:58:34.083Z,92.08
2022-11-29T14:01:05.663Z,91.86
2022-11-29T14:03:38.711Z,91.65
2022-11-29T14:06:13.173Z,91.72
2022-11-29T14:09:17.958Z,92.55
2022-11-29T14:11:52.952Z,92.96
2022-11-29T14:14:31.252Z,93.38
2022-11-29T14:17:34.233Z,93.11
2022-11-29T14:20:22.238Z,92.92
2022-11-29T14:23:30.952Z,93.57
2022-11-29T14:25:57.561Z,93.16
2022-11-29T14:28:24.095Z,93.47
2022-11-29T14:30:55.527Z,93.41
2022-11-29T14:33:42.153Z,93.50
2022-11-29T14:36:14.750Z,93.75
2022-11-29T14:39:02.876Z,94.04
2022-11-29T14:41:50.154Z,94.19
2022-11-29T14:44:24.623Z,94.08
2022-11-29T14:47:18.704Z,94.36
2022-11-29T14:49:46.131Z,94.60
2022-11-29T14:52:30.684Z,94.56
2022-11-29T14:55:06.762Z,94.90
2022-11-29T14:58:13.896Z,95.10
2022-11-29T15:00:56.771Z,94.91
2022-11-29T15:03:38.042Z,94.99
2022-11-29T15:06:13.100Z,95.24
2022-11-29T15:08:58.007Z,95.26
2022-11-29T15:11:51.253Z,95.48
2022-11-29T15:14:40.007Z,95.63
2022-11-29T15:17:37.949Z,96.20
2022-11-29T15:20:46.601Z,95.83
2022-11-29T15:23:18.710Z,95.71
2022-11-29T15:26:07.112Z,95.97
2022-11-29T15:28:36.970Z,96.21
2022-11-29T15:31:12.395Z,96.18
2022-11-29T15:33:44.908Z,96.01
2022-11-29T15:36:17.899Z,96.52
2022-11-29T15:38:47.721Z,95.94
2022-11-29T15:41:31.549Z,95.76
2022-11-29T15:44:04.616Z,96.32
2022-11-29T15:46:34.619Z,96.49
2022-11-29T15:49:27.760Z,96.55
2022-11-29T15:51:58.853Z,96.71
2022-11-29T15:54:31.144Z,96.49
2022-11-29T15:57:04.010Z,96.69
2022-11-29T15:59:37.205Z,96.92
2022-11-29T16:02:27.821Z,97.25
2022-11-29T16:05:14.932Z,96.93
2022-11-29T16:07:43.510Z,96.79
2022-11-29T16:10:19.704Z,96.77
2022-11-29T16:13:06.272Z,96.75
2022-11-29T16:15:38.532Z,97.27
2022-11-29T16:18:18.789Z,97.03
2022-11-29T16:21:01.689Z,96.93
2022-11-29T16:23:42.141Z,96.97
2022-11-29T16:26:19.614Z,97.61
2022-11-29T16:28:48.681Z,97.47
2022-11-29T16:31:18.005Z,97.64
2022-11-29T16:33:47.369Z,97.14
2022-11-29T16:36:22.147Z,97.22
2022-11-29T16:38:54.412Z,97.13
2022-11-29T16:41:32.251Z,96.92
2022-11-29T16:43:59.730Z,97.12
2022-11-29T16:46:30.167Z,97.36
2022-11-29T16:48:58.635Z,97.58
2022-11-29T16:51:26.989Z,97.48
2022-11-29T16:53:55.736Z,97.05
2022-11-29T16:56:33.512Z,97.23
2022-11-29T16:59:25.050Z,97.52
2022-11-29T17:01:49.387Z,97.38
2022-11-29T17:04:24.372Z,97.00
2022-11-29T17:06:53.390Z,97.16
2022-11-29T17:09:26.817Z,97.61
2022-11-29T17:11:55.116Z,97.34
2022-11-29T17:14:21.745Z,97.54
2022-11-29T17:16:49.617Z,97.20
2022-11-29T17:19:16.276Z,97.55
2022-11-29T17:21:42.920Z,97.94
2022-11-29T17:24:12.930Z,97.36
2022-11-29T17:26:41.085Z,97.18
2022-11-29T17:29:09.216Z,96.96
2022-11-29T17:31:35.809Z,97.33
2022-11-29T17:34:02.834Z,97.55
2022-11-29T17:36:29.476Z,97.20
2022-11-29T17:38:56.343Z,97.89
2022-11-29T17:41:24.511Z,97.04
2022-11-29T17:43:52.893Z,97.41
2022-11-29T17:46:24.977Z,97.29
2022-11-29T17:48:52.370Z,97.20
2022-11-29T17:51:50.439Z,97.39
2022-11-29T17:54:09.257Z,97.60
2022-11-29T17:56:35.772Z,97.39
2022-11-29T17:59:04.007Z,96.97
2022-11-29T18:01:35.648Z,97.09
2022-11-29T18:04:04.231Z,97.20
2022-11-29T18:06:37.605Z,97.18
2022-11-29T18:09:05.765Z,97.41
2022-11-29T18:11:44.959Z,97.41
2022-11-29T18:14:16.726Z,97.38
2022-11-29T18:16:45.312Z,97.24
2022-11-29T18:19:14.535Z,97.04
2022-11-29T18:21:41.113Z,97.13
2022-11-29T18:24:08.469Z,97.03
2022-11-29T18:26:36.444Z,97.26
2022-11-29T18:29:04.156Z,97.30
2022-11-29T18:31:33.051Z,97.45
2022-11-29T18:34:02.150Z,97.46
2022-11-29T18:36:33.471Z,97.28
2022-11-29T18:39:08.706Z,97.61
2022-11-29T18:41:35.445Z,97.46
2022-11-29T18:44:07.351Z,97.16
2022-11-29T18:46:36.736Z,97.26
2022-11-29T18:49:06.052Z,97.29
2022-11-29T18:51:34.097Z,97.17
2022-11-29T18:54:01.045Z,96.99
2022-11-29T18:56:30.794Z,97.35
2022-11-29T18:59:10.120Z,97.89
2022-11-29T19:01:40.884Z,97.27
2022-11-29T19:04:09.165Z,97.23
2022-11-29T19:06:39.715Z,97.22
2022-11-29T19:09:11.357Z,97.08
2022-11-29T19:11:38.514Z,97.50
2022-11-29T19:14:11.447Z,97.41
2022-11-29T19:16:40.715Z,97.58
2022-11-29T19:19:07.282Z,97.11
2022-11-29T19:21:37.056Z,97.73
2022-11-29T19:24:07.475Z,97.48
2022-11-29T19:26:34.582Z,97.20
2022-11-29T19:29:01.790Z,97.31
2022-11-29T19:31:28.982Z,97.48
2022-11-29T19:33:56.343Z,96.96
2022-11-29T19:36:25.371Z,97.41
2022-11-29T19:38:54.106Z,97.29
2022-11-29T19:41:26.353Z,97.43
2022-11-29T19:43:55.231Z,97.20
2022-11-29T19:46:24.156Z,97.22
2022-11-29T19:48:54.880Z,97.42
2022-11-29T19:51:22.728Z,96.93
2022-11-29T19:53:53.056Z,96.96
2022-11-29T19:56:20.510Z,97.35
2022-11-29T19:58:48.156Z,97.16
2022-11-29T20:01:24.424Z,97.28
2022-11-29T20:03:52.251Z,97.41
2022-11-29T20:06:19.202Z,96.93
2022-11-29T20:08:46.190Z,97.32
2022-11-29T20:11:21.382Z,97.19
2022-11-29T20:13:54.052Z,97.12
2022-11-29T20:16:22.136Z,97.32
2022-11-29T20:18:51.229Z,97.09
2022-11-29T20:21:27.858Z,97.16
2022-11-29T20:23:58.746Z,97.47
2022-11-29T20:26:25.851Z,97.19
2022-11-29T20:28:52.566Z,97.20
2022-11-29T20:31:22.674Z,96.92
2022-11-29T20:33:51.718Z,97.33
2022-11-29T20:36:30.287Z,97.29
2022-11-29T20:39:21.444Z,97.07
2022-11-29T20:41:50.954Z,97.23
2022-11-29T20:44:35.768Z,97.31
2022-11-29T20:47:11.559Z,97.47
2022-11-29T20:49:38.186Z,96.95
2022-11-29T20:52:09.363Z,97.14
2022-11-29T20:54:35.897Z,97.28
2022-11-29T20:57:02.311Z,97.05
2022-11-29T20:59:28.778Z,97.04
2022-11-29T21:01:57.357Z,97.45
2022-11-29T21:04:23.905Z,96.98
2022-11-29T21:06:50.407Z,97.42
2022-11-29T21:09:16.918Z,97.28
2022-11-29T21:11:43.552Z,97.05
2022-11-29T21:14:10.347Z,96.55
2022-11-29T21:16:37.035Z,97.15
2022-11-29T21:19:03.876Z,96.92
2022-11-29T21:21:38.616Z,96.89
2022-11-29T21:24:29.011Z,96.88
2022-11-29T21:26:55.703Z,97.16
2022-11-29T21:29:23.393Z,96.84
2022-11-29T21:31:53.019Z,97.19
2022-11-29T21:34:20.149Z,97.25
2022-11-29T21:36:55.482Z,97.00
2022-11-29T21:39:23.099Z,97.33
2022-11-29T21:41:49.534Z,97.33
2022-11-29T21:44:16.003Z,96.95
2022-11-29T21:46:42.500Z,97.18
2022-11-29T21:49:09.048Z,97.06
2022-11-29T21:51:35.495Z,96.94
2022-11-29T21:54:02.714Z,96.95
2022-11-29T21:56:29.184Z,97.35
2022-11-29T21:58:55.611Z,96.82
2022-11-29T22:01:22.996Z,97.40
2022-11-29T22:03:53.368Z,96.74
2022-11-29T22:06:24.175Z,96.93
2022-11-29T22:08:50.702Z,97.23
2022-11-29T22:11:35.393Z,97.00
2022-11-29T22:14:16.969Z,96.86
2022-11-29T22:16:58.240Z,97.21
2022-11-29T22:19:26.196Z,96.78
2022-11-29T22:21:55.515Z,97.26
2022-11-29T22:24:25.188Z,96.73
2022-11-29T22:26:52.779Z,97.18
2022-11-29T22:29:19.887Z,97.00
2022-11-29T22:31:49.467Z,96.71
2022-11-29T22:34:16.771Z,96.91
2022-11-29T22:36:43.219Z,96.65
2022-11-29T22:39:09.758Z,96.21
2022-11-29T22:41:37.702Z,96.74
2022-11-29T22:44:04.758Z,96.67
2022-11-29T22:46:31.966Z,96.08
2022-11-29T22:49:00.571Z,96.25
2022-11-29T22:51:33.047Z,95.91
2022-11-29T22:54:01.891Z,96.09
2022-11-29T22:56:31.586Z,95.94
2022-11-29T22:58:58.640Z,96.02
2022-11-29T23:01:27.667Z,95.36
2022-11-29T23:03:55.392Z,95.80
2022-11-29T23:06:31.474Z,95.76
2022-11-29T23:09:00.107Z,95.43
2022-11-29T23:11:29.143Z,95.33
2022-11-29T23:13:55.519Z,95.36
2022-11-29T23:16:24.824Z,95.39
2022-11-29T23:18:52.348Z,95.16
2022-11-29T23:21:20.483Z,94.71
2022-11-29T23:23:56.063Z,94.87
2022-11-29T23:26:31.084Z,95.00
2022-11-29T23:29:09.071Z,94.62
2022-11-29T23:31:35.508Z,95.13
2022-11-29T23:34:02.790Z,95.22
2022-11-29T23:36:29.296Z,95.41
2022-11-29T23:38:55.939Z,95.15
2022-11-29T23:41:22.461Z,95.57
2022-11-29T23:43:51.637Z,95.24
2022-11-29T23:46:20.910Z,95.12
2022-11-29T23:48:47.558Z,95.24
2022-11-29T23:51:14.518Z,95.14
2022-11-29T23:53:41.773Z,95.94
2022-11-29T23:56:18.026Z,95.61
2022-11-29T23:58:45.192Z,96.11
